Sugar Valley, Texas
Current Conditions -  °F | °C
As of 6:53 PM on Saturday 22 Nov 2014 (Local Time) from KLBX Reporting Station
Overcast Overcast  
Wind Chill: 67°   Ceiling: 1500
Heat Index: 67°   Visibility: 10mi
Dew Point: 67°   Wind: 10mph
Humidity: 100%   Direction: 150°SSE
Pressure: 29.81"   Gusts: NA
Location:  29.0235°N, 95.7113°W
Report Text: KLBX 230053Z AUTO 15009KT 10SM BKN015 OVC055 19/19 A2981 RMK AO2 LTG DSNT W RAB05E41 SLP093 P0007 T01940194
Loading
Personal Weather Stations






























Interactive Weather Map New forecast layout! Learn more

10-Day Weather Forecast

Advertisements
Track Severe Weather on mobile